sim
Sign-in with your pilot id or email,
or register
Callsign
Passwort

Schedule Details

Flight Number: DLH2228 (1)
Departure: Munich Airport (EDDM) at 08:00
Arrival: Paris Charles de Gaulle Airport (LFPG) at 09:35
Route: Lufthansa Passenger Schedule. Enter filed route here before submitting Pirep.

Weather Information
Getting current METAR information for EDDM 010420Z 07001KT 0700 R08L/0450N R08R/0700N FG FEW001 03/03 Q1009 BECMG 0500 BKN001
Getting current METAR information for LFPG 010430Z 17009KT 8000 -RA BKN009 BKN026 14/13 Q1001 NOSIG

Schedule Frequency

Route Map